Time;durP1;ratioP1;P1;durP2;ratioP2;P2;SDS_P1;SDS_P2;PMS_P1;PMS_P2;Temp;Humidity;BMP_temperature;BMP_pressure;BME280_temperature;BME280_humidity;BME280_pressure;Samples;Min_cycle;Max_cycle;Signal;HPM_P1;HPM_P2
2023/10/15 00:00:18;;;;;;;10.35;3.67;;;;;;;8.78;83.30;101553.06;3615235;39;20051;-68
2023/10/15 00:02:52;;;;;;;9.63;3.97;;;;;;;8.88;83.05;101570.53;3616841;39;20043;-67
2023/10/15 00:05:25;;;;;;;7.10;3.50;;;;;;;8.89;84.02;101572.25;3615371;39;20055;-68
2023/10/15 00:07:51;;;;;;;8.65;3.60;;;;;;;8.85;83.54;101562.59;3614861;39;20076;-68
2023/10/15 00:10:25;;;;;;;9.73;3.75;;;;;;;8.83;83.79;101561.78;3606248;39;20050;-67
2023/10/15 00:12:55;;;;;;;7.82;3.40;;;;;;;9.00;83.71;101593.22;3615045;39;20053;-67
2023/10/15 00:15:23;;;;;;;7.13;3.60;;;;;;;9.07;82.51;101602.78;3615311;39;20381;-68
2023/10/15 00:17:51;;;;;;;8.65;3.50;;;;;;;9.09;82.95;101598.19;3616839;39;20127;-68
2023/10/15 00:20:26;;;;;;;6.90;3.28;;;;;;;9.13;82.32;101596.25;3616673;39;20131;-68
2023/10/15 00:22:52;;;;;;;11.30;3.60;;;;;;;9.13;81.72;101604.31;3614572;39;20055;-67
2023/10/15 00:25:22;;;;;;;8.27;3.70;;;;;;;9.18;80.36;101607.66;3614756;39;20066;-68
2023/10/15 00:27:52;;;;;;;5.45;3.38;;;;;;;9.19;80.66;101601.34;3615578;39;20450;-68
2023/10/15 00:30:19;;;;;;;5.15;2.85;;;;;;;9.27;79.47;101604.59;3616059;39;20122;-68
2023/10/15 00:32:47;;;;;;;5.38;3.30;;;;;;;9.24;79.55;101594.00;3614956;39;20046;-68
2023/10/15 00:35:19;;;;;;;5.97;3.20;;;;;;;9.36;79.94;101606.00;3615266;39;20051;-67
2023/10/15 00:37:57;;;;;;;7.57;3.10;;;;;;;9.28;79.17;101579.50;3617833;39;20061;-68
2023/10/15 00:40:28;;;;;;;9.02;3.65;;;;;;;9.43;78.67;101605.66;3617995;39;20053;-68
2023/10/15 00:42:57;;;;;;;6.00;2.75;;;;;;;9.45;78.99;101613.63;3615961;39;20051;-68
2023/10/15 00:45:23;;;;;;;9.25;3.00;;;;;;;9.26;79.20;101573.31;3615219;39;20055;-68
2023/10/15 00:48:07;;;;;;;7.53;3.17;;;;;;;9.37;79.76;101573.72;3616946;39;20086;-70
2023/10/15 00:50:44;;;;;;;7.50;2.83;;;;;;;9.50;80.03;101574.03;3615296;39;20137;-68
2023/10/15 00:53:26;;;;;;;10.48;3.15;;;;;;;9.54;80.72;101581.00;3615498;39;20076;-70
2023/10/15 00:56:03;;;;;;;7.95;3.05;;;;;;;9.55;80.82;101582.75;3615224;39;20047;-68
2023/10/15 01:01:20;;;;;;;5.47;2.53;;;;;;;9.53;81.50;101606.97;3616092;39;20390;-68
2023/10/15 01:03:58;;;;;;;6.07;2.53;;;;;;;9.54;81.97;101587.22;3617098;39;20396;-69
2023/10/15 01:06:35;;;;;;;4.63;2.60;;;;;;;9.51;81.88;101584.72;3616596;39;20066;-69
2023/10/15 01:09:09;;;;;;;5.07;2.50;;;;;;;9.49;82.15;101589.28;3618144;39;20312;-69
2023/10/15 01:11:58;;;;;;;6.97;3.28;;;;;;;9.43;82.92;101578.81;3617703;39;20848;-69
2023/10/15 01:14:33;;;;;;;6.47;3.30;;;;;;;9.35;83.46;101580.94;3615075;39;20111;-68
2023/10/15 01:17:00;;;;;;;7.82;3.33;;;;;;;9.12;83.70;101540.88;3612705;39;20062;-69
2023/10/15 01:19:32;;;;;;;5.63;2.85;;;;;;;9.29;83.58;101576.75;3604241;39;20111;-69
2023/10/15 01:22:02;;;;;;;8.73;3.13;;;;;;;9.25;82.75;101561.72;3616034;39;20054;-69
2023/10/15 01:24:33;;;;;;;6.95;3.10;;;;;;;9.19;83.30;101563.81;3614548;39;20047;-69
2023/10/15 01:27:05;;;;;;;7.78;3.45;;;;;;;9.16;84.00;101563.94;3619177;39;20069;-68
2023/10/15 01:29:34;;;;;;;10.48;3.90;;;;;;;9.15;84.63;101562.19;3615396;39;20091;-70
2023/10/15 01:32:03;;;;;;;9.15;3.42;;;;;;;8.94;83.68;101543.41;3613901;39;20070;-68
2023/10/15 01:34:37;;;;;;;5.88;3.30;;;;;;;9.00;84.57;101553.88;3615543;39;20062;-69
2023/10/15 01:37:02;;;;;;;;;;;;;;;8.98;85.23;101565.63;3614295;39;20051;-67
2023/10/15 01:39:38;;;;;;;8.80;3.47;;;;;;;8.95;84.29;101566.63;3614347;39;20436;-68
2023/10/15 01:42:06;;;;;;;6.88;3.38;;;;;;;8.91;84.25;101564.13;3614501;39;20051;-68
2023/10/15 01:44:35;;;;;;;7.78;3.20;;;;;;;8.80;84.75;101552.06;3615526;39;20408;-68
2023/10/15 01:49:32;;;;;;;7.05;3.83;;;;;;;8.43;84.76;101485.75;3618537;39;20439;-68
2023/10/15 01:52:09;;;;;;;9.55;3.78;;;;;;;8.88;85.17;101562.47;3614543;39;20102;-67
2023/10/15 01:54:45;;;;;;;9.35;3.80;;;;;;;8.89;85.64;101556.16;3614682;39;20113;-68
2023/10/15 01:57:15;;;;;;;7.10;3.50;;;;;;;8.94;86.13;101575.59;3615029;39;20046;-68
2023/10/15 01:59:45;;;;;;;8.27;3.50;;;;;;;8.93;85.72;101581.91;3615804;39;20050;-69
2023/10/15 02:02:14;;;;;;;9.27;3.83;;;;;;;8.84;86.11;101575.13;3615005;39;20293;-69
2023/10/15 02:04:44;;;;;;;7.60;3.70;;;;;;;8.81;86.05;101569.00;3606344;39;20115;-68
2023/10/15 02:07:20;;;;;;;7.07;3.22;;;;;;;8.77;85.97;101559.38;3604325;39;20091;-68
2023/10/15 02:09:46;;;;;;;8.88;3.63;;;;;;;8.84;85.81;101571.56;3616849;39;20055;-68
2023/10/15 02:12:19;;;;;;;6.50;3.30;;;;;;;8.81;86.18;101563.66;3619378;39;20429;-68
2023/10/15 02:14:47;;;;;;;;;;;;;;;8.79;86.01;101562.88;3616527;39;20297;-67
2023/10/15 02:17:23;;;;;;;7.90;3.50;;;;;;;8.80;85.16;101556.56;3614099;39;20325;-68
2023/10/15 02:19:55;;;;;;;8.35;3.53;;;;;;;8.71;84.60;101532.81;3614724;39;20135;-68
2023/10/15 02:22:21;;;;;;;6.03;3.30;;;;;;;8.82;84.94;101549.34;3614876;39;20055;-67
2023/10/15 02:24:47;;;;;;;5.15;3.15;;;;;;;8.87;85.49;101552.66;3616252;39;20051;-68
2023/10/15 02:27:24;;;;;;;9.98;3.78;;;;;;;8.86;84.40;101553.63;3614059;39;20057;-68
2023/10/15 02:29:52;;;;;;;7.03;3.45;;;;;;;8.82;84.71;101557.38;3616918;39;20055;-67
2023/10/15 02:32:28;;;;;;;7.70;3.25;;;;;;;8.76;84.92;101549.59;3614797;39;20111;-68
2023/10/15 02:34:57;;;;;;;6.95;3.50;;;;;;;8.83;84.50;101556.44;3617076;39;20111;-67
2023/10/15 02:37:26;;;;;;;6.50;3.47;;;;;;;8.80;84.86;101560.09;3616459;39;20044;-67
2023/10/15 02:39:56;;;;;;;5.57;2.80;;;;;;;8.79;84.75;101549.47;3605429;39;20051;-67
2023/10/15 02:42:33;;;;;;;12.27;3.75;;;;;;;8.78;84.17;101553.06;3615360;39;20047;-67
2023/10/15 02:44:59;;;;;;;4.97;3.17;;;;;;;8.77;84.79;101562.91;3616308;39;20051;-68
2023/10/15 02:47:41;;;;;;;10.30;3.45;;;;;;;8.77;85.37;101559.38;3618013;39;20046;-67
2023/10/15 02:50:10;;;;;;;8.00;3.67;;;;;;;8.36;85.36;101478.88;3604108;39;20043;-67
2023/10/15 02:52:35;;;;;;;6.60;3.45;;;;;;;8.84;84.61;101553.66;3616183;39;20840;-68
2023/10/15 02:55:10;;;;;;;7.28;3.50;;;;;;;8.79;84.42;101544.97;3618771;39;20054;-68
2023/10/15 02:57:38;;;;;;;7.53;3.58;;;;;;;8.54;84.47;101496.91;3618634;39;20039;-68
2023/10/15 03:00:24;;;;;;;6.72;3.10;;;;;;;8.86;84.18;101540.22;3617868;39;20378;-67
2023/10/15 03:02:50;;;;;;;10.63;3.65;;;;;;;8.90;84.62;101595.44;3617291;39;20058;-68
2023/10/15 03:05:15;;;;;;;9.80;4.00;;;;;;;8.80;84.48;101594.09;3616967;39;20058;-67
2023/10/15 03:07:43;;;;;;;9.05;4.18;;;;;;;8.89;84.75;101598.19;3614991;39;20051;-69
2023/10/15 03:10:21;;;;;;;6.35;3.50;;;;;;;8.86;85.37;101579.56;3615821;39;20082;-67
2023/10/15 03:12:50;;;;;;;8.07;4.00;;;;;;;9.01;85.16;101577.09;3615862;39;20090;-67
2023/10/15 03:15:17;;;;;;;7.88;3.90;;;;;;;9.04;84.30;101586.81;3615493;39;20049;-68
2023/10/15 03:17:46;;;;;;;5.03;3.67;;;;;;;9.09;83.29;101603.56;3609957;39;20047;-68
2023/10/15 03:22:46;;;;;;;6.50;3.60;;;;;;;9.26;84.71;101621.59;3616516;39;20431;-68
2023/10/15 03:25:16;;;;;;;7.80;3.50;;;;;;;9.30;84.18;101621.41;3616005;39;20082;-67
2023/10/15 03:27:48;;;;;;;8.18;3.63;;;;;;;9.34;84.37;101635.56;3604903;39;20112;-68
2023/10/15 03:30:14;;;;;;;7.28;3.50;;;;;;;9.36;83.62;101625.66;3615422;39;20043;-68
2023/10/15 03:32:45;;;;;;;5.05;3.20;;;;;;;9.39;84.85;101606.75;3617228;39;20060;-69
2023/10/15 03:35:18;;;;;;;8.55;3.60;;;;;;;9.39;85.27;101609.41;3615101;39;20318;-69
2023/10/15 03:37:45;;;;;;;7.43;3.08;;;;;;;9.41;86.16;101607.53;3617784;39;20062;-68
2023/10/15 03:40:29;;;;;;;5.95;2.83;;;;;;;9.45;86.00;101611.84;3614389;39;20048;-68
2023/10/15 03:43:00;;;;;;;;;;;;;;;9.46;85.07;101608.19;3609312;39;20090;-68
2023/10/15 03:45:26;;;;;;;6.15;3.05;;;;;;;9.34;85.64;101592.63;3614733;39;19943;-69
2023/10/15 03:47:54;;;;;;;6.13;2.65;;;;;;;9.22;85.55;101574.41;3616570;39;20054;-67
2023/10/15 03:50:20;;;;;;;3.13;1.75;;;;;;;9.44;84.25;101614.56;3616280;39;20051;-67
2023/10/15 03:52:45;;;;;;;5.63;2.53;;;;;;;9.37;84.28;101610.41;3616289;39;20047;-69
2023/10/15 03:55:11;;;;;;;4.30;2.15;;;;;;;9.39;84.40;101628.19;3614378;39;20079;-67
2023/10/15 03:57:37;;;;;;;5.93;2.17;;;;;;;9.36;84.84;101631.03;3615184;39;20054;-67
2023/10/15 04:00:26;;;;;;;4.25;2.20;;;;;;;9.35;86.03;101629.25;3617386;39;20050;-69
2023/10/15 04:05:28;;;;;;;4.93;1.90;;;;;;;9.19;86.12;101612.94;3616163;39;20092;-68
2023/10/15 04:07:53;;;;;;;3.88;2.10;;;;;;;9.14;85.70;101614.13;3614418;39;20055;-69
2023/10/15 04:10:23;;;;;;;4.93;2.40;;;;;;;9.34;86.35;101653.47;3617089;39;20407;-69
2023/10/15 04:12:49;;;;;;;4.43;2.13;;;;;;;9.31;87.23;101649.13;3618344;39;20135;-70
2023/10/15 04:15:16;;;;;;;5.70;2.28;;;;;;;8.78;87.55;101569.16;3615093;39;20548;-69
2023/10/15 04:17:45;;;;;;;4.47;2.70;;;;;;;9.29;87.84;101661.72;3615786;39;20051;-70
2023/10/15 04:20:15;;;;;;;3.78;2.20;;;;;;;9.27;87.31;101658.25;3618669;39;20475;-69
2023/10/15 04:22:44;;;;;;;2.38;1.92;;;;;;;9.30;88.81;101655.44;3615391;39;20051;-69
2023/10/15 04:25:23;;;;;;;3.42;2.17;;;;;;;9.31;88.20;101643.75;3618778;39;20058;-70
2023/10/15 04:27:50;;;;;;;4.53;2.15;;;;;;;9.32;87.92;101639.25;3621697;39;20306;-70
2023/10/15 04:30:17;;;;;;;5.70;2.55;;;;;;;9.30;88.24;101642.88;3616714;39;20046;-69
2023/10/15 04:35:17;;;;;;;6.47;3.25;;;;;;;9.15;88.68;101615.84;3616102;39;20053;-69
2023/10/15 04:37:45;;;;;;;5.10;2.80;;;;;;;9.18;88.98;101637.19;3617231;39;20123;-69
2023/10/15 04:40:13;;;;;;;6.32;2.78;;;;;;;9.16;90.81;101628.31;3615795;39;20463;-69
2023/10/15 04:42:51;;;;;;;5.45;3.35;;;;;;;8.99;90.78;101603.09;3616038;39;20091;-69
2023/10/15 04:45:35;;;;;;;8.10;3.03;;;;;;;9.16;90.18;101636.34;3617763;39;20123;-69
2023/10/15 04:48:01;;;;;;;4.40;2.88;;;;;;;9.20;90.75;101636.19;3615241;39;20062;-69
2023/10/15 04:50:29;;;;;;;4.25;2.72;;;;;;;9.19;89.31;101614.75;3615532;39;20066;-69
2023/10/15 04:53:17;;;;;;;5.63;2.70;;;;;;;9.20;87.84;101613.84;3614262;39;20108;-70
2023/10/15 04:55:43;;;;;;;4.55;1.92;;;;;;;9.16;87.50;101607.72;3614983;39;20116;-69
2023/10/15 04:58:10;;;;;;;5.25;2.00;;;;;;;9.16;87.26;101597.00;3615846;39;20054;-70
2023/10/15 05:00:46;;;;;;;4.97;1.90;;;;;;;9.15;87.34;101600.63;3617572;39;20096;-69
2023/10/15 05:03:12;;;;;;;2.80;1.08;;;;;;;9.16;85.80;101598.81;3615899;39;20059;-70
2023/10/15 05:05:38;;;;;;;3.42;1.42;;;;;;;9.14;86.11;101598.03;3615017;39;20119;-69
2023/10/15 05:08:10;;;;;;;4.20;2.00;;;;;;;9.13;86.14;101593.56;3614911;39;20273;-68
2023/10/15 05:10:38;;;;;;;3.85;1.27;;;;;;;9.14;85.68;101592.66;3614216;39;20051;-68
2023/10/15 05:13:05;;;;;;;2.60;1.38;;;;;;;9.13;86.13;101596.25;3616583;39;20066;-69
2023/10/15 05:15:30;;;;;;;1.40;1.27;;;;;;;9.12;86.21;101594.53;3613898;39;21422;-69
2023/10/15 05:17:56;;;;;;;4.57;1.55;;;;;;;9.15;85.99;101610.47;3616195;39;20077;-69
2023/10/15 05:20:21;;;;;;;3.83;1.38;;;;;;;9.15;86.11;101605.13;3614287;39;20047;-69
2023/10/15 05:22:48;;;;;;;3.40;1.63;;;;;;;8.94;86.58;101567.53;3614628;39;20054;-69
2023/10/15 05:25:18;;;;;;;3.17;1.70;;;;;;;9.13;86.37;101615.03;3613825;39;20069;-68
2023/10/15 05:27:52;;;;;;;3.83;1.65;;;;;;;9.11;87.49;101635.69;3615565;39;20082;-70
2023/10/15 05:30:19;;;;;;;5.10;1.98;;;;;;;9.01;87.67;101636.09;3613522;39;20055;-70
2023/10/15 05:32:48;;;;;;;5.10;2.22;;;;;;;8.98;86.07;101649.63;3612681;39;20053;-70
2023/10/15 05:35:17;;;;;;;6.47;1.75;;;;;;;8.90;82.99;101665.16;3614059;39;20081;-70
2023/10/15 05:37:45;;;;;;;2.88;1.20;;;;;;;8.75;83.42;101649.69;3613543;39;20047;-70
2023/10/15 05:40:21;;;;;;;3.20;1.35;;;;;;;8.75;84.38;101673.81;3613308;39;20139;-70
2023/10/15 05:42:48;;;;;;;2.45;1.33;;;;;;;8.69;85.23;101682.09;3614745;39;20057;-69
2023/10/15 05:45:14;;;;;;;2.55;1.20;;;;;;;8.63;85.21;101685.03;3614602;39;20086;-70
2023/10/15 05:47:45;;;;;;;5.05;0.80;;;;;;;8.53;85.12;101681.84;3613977;39;20058;-69
2023/10/15 05:50:16;;;;;;;4.00;1.15;;;;;;;8.44;85.68;101693.81;3615051;39;20090;-70
2023/10/15 05:52:42;;;;;;;1.15;0.68;;;;;;;8.32;86.37;101678.19;3614742;39;20050;-70
2023/10/15 05:55:11;;;;;;;2.38;0.90;;;;;;;8.30;86.54;101683.59;3616275;39;20062;-69
2023/10/15 05:57:37;;;;;;;1.92;0.57;;;;;;;8.27;86.71;101681.03;3616771;39;20730;-69
2023/10/15 06:00:17;;;;;;;2.53;0.80;;;;;;;8.14;87.15;101661.88;3613207;39;20153;-69
2023/10/15 06:02:53;;;;;;;1.73;0.88;;;;;;;8.08;87.19;101638.00;3612787;39;20442;-69
2023/10/15 06:05:19;;;;;;;4.30;0.90;;;;;;;8.06;88.33;101631.84;3613984;39;20393;-69
2023/10/15 06:07:46;;;;;;;3.00;0.65;;;;;;;8.28;89.31;101672.06;3615453;39;20059;-69
2023/10/15 06:10:12;;;;;;;2.55;0.85;;;;;;;8.27;89.71;101670.31;3616814;39;20054;-69
2023/10/15 06:12:42;;;;;;;2.03;1.00;;;;;;;8.35;90.15;101673.56;3616123;39;20043;-69
2023/10/15 06:15:11;;;;;;;2.40;1.00;;;;;;;8.39;90.30;101669.00;3617405;39;20126;-70
2023/10/15 06:17:37;;;;;;;3.33;0.93;;;;;;;8.39;89.84;101673.50;3615900;39;20063;-70
2023/10/15 06:20:12;;;;;;;2.95;1.10;;;;;;;8.37;90.17;101677.06;3618852;39;20279;-70
2023/10/15 06:22:47;;;;;;;1.98;0.80;;;;;;;8.49;89.78;101685.59;3616220;39;20089;-67
2023/10/15 06:25:18;;;;;;;2.13;1.15;;;;;;;8.40;89.62;101676.09;3615253;39;20120;-67
2023/10/15 06:27:44;;;;;;;2.60;1.17;;;;;;;8.29;90.17;101651.50;3613498;39;20100;-67
2023/10/15 06:30:15;;;;;;;1.77;0.85;;;;;;;8.54;90.51;101686.28;3614634;39;20058;-68
2023/10/15 06:32:48;;;;;;;2.47;1.00;;;;;;;8.57;89.08;101699.56;3611679;39;20061;-67
2023/10/15 06:35:19;;;;;;;1.83;1.00;;;;;;;8.56;90.58;101693.34;3613189;39;20054;-68
2023/10/15 06:37:51;;;;;;;2.33;1.30;;;;;;;8.59;89.04;101703.03;3615074;39;20069;-67
2023/10/15 06:40:17;;;;;;;1.65;0.90;;;;;;;8.56;90.32;101698.69;3613919;39;20422;-68
2023/10/15 06:42:45;;;;;;;3.42;1.20;;;;;;;8.57;90.72;101694.22;3608831;39;20047;-68
2023/10/15 06:45:11;;;;;;;1.50;1.20;;;;;;;8.58;90.02;101696.81;3615623;39;20054;-68
2023/10/15 06:47:38;;;;;;;4.22;1.50;;;;;;;8.38;89.42;101656.56;3616282;39;20038;-68
2023/10/15 06:50:07;;;;;;;2.60;1.38;;;;;;;8.57;89.06;101692.41;3613713;39;20059;-67
2023/10/15 06:52:39;;;;;;;2.88;1.10;;;;;;;8.59;89.34;101687.88;3612637;39;20496;-68
2023/10/15 06:55:07;;;;;;;3.50;1.30;;;;;;;8.60;89.44;101694.97;3615647;39;20063;-68
2023/10/15 06:57:38;;;;;;;2.85;1.17;;;;;;;8.63;88.52;101680.56;3618066;39;20051;-69
2023/10/15 07:00:07;;;;;;;2.60;1.45;;;;;;;8.66;88.45;101693.84;3603256;39;20091;-68
2023/10/15 07:02:32;;;;;;;4.57;2.30;;;;;;;8.73;89.79;101702.50;3614130;39;20410;-68
2023/10/15 07:05:00;;;;;;;3.03;1.02;;;;;;;8.75;89.14;101700.63;3613582;39;20051;-67
2023/10/15 07:07:27;;;;;;;1.98;1.20;;;;;;;8.77;89.15;101709.50;3615298;39;20388;-69
2023/10/15 07:09:53;;;;;;;3.55;1.20;;;;;;;8.78;88.70;101711.22;3613379;39;20054;-67
2023/10/15 07:12:20;;;;;;;1.77;1.08;;;;;;;8.81;89.11;101720.00;3614676;39;20126;-68
2023/10/15 07:14:48;;;;;;;3.17;1.10;;;;;;;8.74;89.77;101698.88;3619416;39;20051;-68
2023/10/15 07:17:15;;;;;;;2.85;1.20;;;;;;;8.89;90.26;101727.75;3608423;39;20054;-68
2023/10/15 07:19:41;;;;;;;3.33;1.58;;;;;;;8.90;89.45;101721.47;3614418;39;20063;-68
2023/10/15 07:22:06;;;;;;;2.05;1.17;;;;;;;8.94;89.38;101725.75;3617224;39;20153;-67
2023/10/15 07:24:33;;;;;;;3.72;1.40;;;;;;;8.92;89.13;101716.91;3614527;39;20055;-68
2023/10/15 07:27:00;;;;;;;2.42;1.40;;;;;;;9.01;89.77;101729.97;3615310;39;20069;-68
2023/10/15 07:29:30;;;;;;;3.92;1.42;;;;;;;9.06;89.92;101730.63;3615830;39;20067;-69
2023/10/15 07:31:56;;;;;;;4.15;1.45;;;;;;;9.14;90.53;101746.41;3614448;39;20135;-68
2023/10/15 07:34:26;;;;;;;3.08;1.30;;;;;;;9.23;90.83;101750.53;3614474;39;20414;-68
2023/10/15 07:36:56;;;;;;;3.78;1.80;;;;;;;8.82;90.00;101680.69;3618258;39;20063;-68
2023/10/15 07:39:28;;;;;;;5.00;1.67;;;;;;;9.32;89.75;101763.53;3619424;39;20055;-67
2023/10/15 07:41:53;;;;;;;5.20;2.00;;;;;;;9.33;89.27;101770.69;3614633;39;20054;-68
2023/10/15 07:44:19;;;;;;;6.97;1.70;;;;;;;9.17;88.84;101748.09;3614180;39;20089;-67
2023/10/15 07:46:46;;;;;;;4.90;1.77;;;;;;;9.30;89.57;101749.34;3615372;39;20290;-68
2023/10/15 07:49:12;;;;;;;4.18;1.98;;;;;;;9.38;89.19;101749.88;3616369;39;20262;-68
2023/10/15 07:51:39;;;;;;;1.85;1.33;;;;;;;9.40;89.26;101739.97;3617410;39;20050;-68
2023/10/15 07:54:06;;;;;;;3.72;1.52;;;;;;;9.33;88.85;101722.38;3618331;39;20059;-67
2023/10/15 07:56:34;;;;;;;5.47;1.73;;;;;;;9.56;88.93;101744.69;3615454;39;20050;-68
2023/10/15 07:59:04;;;;;;;4.97;2.20;;;;;;;9.56;88.47;101747.34;3618687;39;20051;-67
2023/10/15 08:01:31;;;;;;;7.32;4.35;;;;;;;9.75;89.91;101761.72;3619799;39;20074;-68
2023/10/15 08:03:59;;;;;;;10.18;6.00;;;;;;;9.77;89.79;101751.81;3621391;39;20061;-68
2023/10/15 08:06:25;;;;;;;10.00;4.88;;;;;;;9.71;88.99;101734.16;3616636;39;20260;-68
2023/10/15 08:08:51;;;;;;;5.43;3.00;;;;;;;9.98;88.10;101774.16;3616485;39;20122;-67
2023/10/15 08:11:17;;;;;;;3.80;1.70;;;;;;;10.06;88.12;101781.88;3620883;39;20066;-67
2023/10/15 08:13:42;;;;;;;3.08;1.50;;;;;;;10.10;88.21;101770.91;3618524;39;20054;-68
2023/10/15 08:16:08;;;;;;;5.72;1.10;;;;;;;10.19;86.87;101789.31;3619059;39;20039;-67
2023/10/15 08:18:34;;;;;;;2.58;1.35;;;;;;;10.25;86.35;101798.94;3618115;39;20061;-68
2023/10/15 08:20:59;;;;;;;5.35;1.40;;;;;;;10.26;86.61;101799.78;3619264;39;20066;-68
2023/10/15 08:23:26;;;;;;;3.22;1.70;;;;;;;10.17;86.70;101801.06;3615099;39;20067;-68
2023/10/15 08:25:52;;;;;;;5.70;1.63;;;;;;;10.21;86.83;101818.78;3616764;39;20051;-68
2023/10/15 08:28:18;;;;;;;1.92;0.95;;;;;;;10.18;87.00;101814.44;3621039;39;20051;-69
2023/10/15 08:30:43;;;;;;;3.53;1.17;;;;;;;10.15;86.91;101824.47;3622010;39;20057;-68
2023/10/15 08:33:12;;;;;;;5.28;1.52;;;;;;;10.09;85.26;101822.91;3618808;39;20282;-67
2023/10/15 08:35:40;;;;;;;3.28;1.50;;;;;;;10.10;85.65;101842.59;3618813;39;20047;-68
2023/10/15 08:38:07;;;;;;;4.35;1.23;;;;;;;10.09;86.04;101856.97;3619403;39;20051;-68
2023/10/15 08:40:41;;;;;;;6.15;1.50;;;;;;;10.00;86.31;101859.09;3617911;39;20474;-68
2023/10/15 08:43:23;;;;;;;4.43;1.30;;;;;;;10.00;86.40;101869.84;3620410;39;20078;-69
2023/10/15 08:45:51;;;;;;;4.97;1.77;;;;;;;9.95;86.21;101866.47;3619257;39;20458;-69
2023/10/15 08:48:18;;;;;;;4.30;1.30;;;;;;;9.89;85.96;101869.41;3619373;39;20047;-68
2023/10/15 08:50:46;;;;;;;5.78;1.67;;;;;;;9.82;86.75;101873.31;3618769;39;20401;-67
2023/10/15 08:53:13;;;;;;;6.43;1.58;;;;;;;9.79;87.57;101876.13;3618272;39;20047;-67
2023/10/15 08:55:43;;;;;;;5.00;1.58;;;;;;;9.75;87.16;101875.38;3615642;39;20079;-68
2023/10/15 08:58:09;;;;;;;2.80;1.42;;;;;;;9.69;86.34;101885.50;3621204;39;20354;-67
2023/10/15 09:00:39;;;;;;;4.68;1.70;;;;;;;9.66;85.34;101901.72;3614135;39;20054;-67
2023/10/15 09:03:05;;;;;;;6.68;1.20;;;;;;;9.67;85.31;101904.38;3613572;39;20041;-67
2023/10/15 09:05:40;;;;;;;6.53;1.25;;;;;;;9.68;85.91;101905.25;3614583;39;20427;-68
2023/10/15 09:08:07;;;;;;;3.25;1.63;;;;;;;9.67;86.74;101903.47;3618362;39;20054;-67
2023/10/15 09:10:42;;;;;;;3.50;1.27;;;;;;;9.58;87.74;101888.63;3616406;39;20055;-67
2023/10/15 09:13:18;;;;;;;5.60;1.55;;;;;;;9.71;86.64;101915.84;3616593;39;20046;-67
2023/10/15 09:15:47;;;;;;;4.15;1.38;;;;;;;9.67;85.76;101922.25;3619555;39;20046;-67
2023/10/15 09:18:15;;;;;;;3.95;1.00;;;;;;;9.71;86.91;101926.59;3608486;39;20153;-67
2023/10/15 09:20:45;;;;;;;3.15;1.05;;;;;;;9.58;86.42;101914.56;3618312;39;20066;-65
2023/10/15 09:23:11;;;;;;;2.35;0.85;;;;;;;9.69;86.48;101936.50;3615126;39;20058;-65
2023/10/15 09:25:37;;;;;;;4.38;1.20;;;;;;;9.71;86.53;101948.06;3611697;39;20139;-66
2023/10/15 09:28:03;;;;;;;3.53;1.05;;;;;;;9.74;87.55;101942.59;3617483;39;20457;-66
2023/10/15 09:30:32;;;;;;;4.40;1.20;;;;;;;9.72;86.78;101937.25;3617181;39;20169;-66
2023/10/15 09:32:58;;;;;;;3.72;1.20;;;;;;;9.77;87.88;101929.03;3613679;39;20059;-66
2023/10/15 09:35:25;;;;;;;1.85;1.13;;;;;;;9.82;88.42;101918.97;3614748;39;20069;-65
2023/10/15 09:37:54;;;;;;;3.45;1.15;;;;;;;9.93;88.27;101931.97;3611801;39;20046;-67
2023/10/15 09:40:32;;;;;;;3.65;1.25;;;;;;;10.05;87.88;101930.56;3613684;39;20084;-66
2023/10/15 09:42:59;;;;;;;4.90;1.38;;;;;;;10.17;88.65;101917.47;3612628;39;20386;-66
2023/10/15 09:45:25;;;;;;;5.30;1.10;;;;;;;10.37;87.08;101943.53;3615500;39;20419;-67
2023/10/15 09:48:00;;;;;;;2.38;0.88;;;;;;;10.41;87.81;101934.41;3611817;39;20123;-68
2023/10/15 09:50:31;;;;;;;3.58;2.30;;;;;;;10.52;86.53;101951.88;3617605;39;20077;-67
2023/10/15 09:53:09;;;;;;;8.68;2.65;;;;;;;10.39;85.41;101925.53;3613037;39;20055;-67
2023/10/15 09:55:35;;;;;;;2.88;1.08;;;;;;;10.50;83.90;101948.38;3617877;39;20370;-66
2023/10/15 09:58:09;;;;;;;2.33;0.98;;;;;;;10.32;85.57;101926.72;3616150;39;20082;-66
2023/10/15 10:00:46;;;;;;;;;;;;;;;10.13;83.32;101901.56;3616554;39;20094;-66
2023/10/15 10:03:47;;;;;;;1.67;0.98;;;;;;;10.34;83.73;101959.81;3616367;39;20005;-66
2023/10/15 10:06:47;;;;;;;4.78;1.27;;;;;;;10.43;84.92;101958.50;3613439;39;20046;-66
2023/10/15 10:09:21;;;;;;;3.55;1.25;;;;;;;10.43;84.52;101953.13;3614102;39;20130;-66
2023/10/15 10:12:06;;;;;;;2.13;1.50;;;;;;;10.48;84.30;101961.03;3615162;39;20356;-66
2023/10/15 10:15:15;;;;;;;1.80;0.82;;;;;;;10.58;83.41;101968.59;3615674;39;20099;-66
2023/10/15 10:17:42;;;;;;;2.35;1.08;;;;;;;10.66;83.53;101962.91;3616116;39;20309;-65
2023/10/15 10:20:11;;;;;;;4.15;1.80;;;;;;;10.74;83.30;101974.19;3614872;39;20293;-65
2023/10/15 10:22:41;;;;;;;5.03;2.90;;;;;;;10.59;83.76;101938.13;3614654;39;20104;-65
2023/10/15 10:25:07;;;;;;;1.77;0.70;;;;;;;10.77;81.02;101968.69;3614276;39;20053;-65
2023/10/15 10:27:45;;;;;;;4.15;1.30;;;;;;;10.72;80.88;101959.97;3619568;39;20042;-66
2023/10/15 10:30:28;;;;;;;1.90;0.57;;;;;;;10.81;81.67;101975.66;3619064;39;20049;-65
2023/10/15 10:32:57;;;;;;;2.83;1.10;;;;;;;10.86;81.33;101986.22;3615524;39;20285;-65
2023/10/15 10:35:26;;;;;;;4.18;1.10;;;;;;;10.88;80.31;101993.28;3617426;39;20417;-65
2023/10/15 10:38:08;;;;;;;2.40;0.65;;;;;;;10.88;81.54;101993.28;3617616;39;20051;-66
2023/10/15 10:40:52;;;;;;;2.47;1.00;;;;;;;10.88;80.39;101990.59;3603735;39;20305;-65
2023/10/15 10:43:24;;;;;;;3.17;1.17;;;;;;;10.81;80.64;101975.66;3616531;39;20123;-65
2023/10/15 10:45:56;;;;;;;2.53;0.85;;;;;;;10.88;80.94;101958.31;3615521;39;20059;-65
2023/10/15 10:48:23;;;;;;;1.15;0.60;;;;;;;11.24;81.74;101987.19;3614371;39;20054;-65
2023/10/15 10:51:12;;;;;;;2.38;1.10;;;;;;;11.36;79.53;101989.31;3616079;39;20118;-66
2023/10/15 10:53:39;;;;;;;2.75;1.55;;;;;;;11.48;79.58;101992.34;3617472;39;20312;-66
2023/10/15 10:56:09;;;;;;;3.35;1.60;;;;;;;11.65;79.49;101992.44;3616137;39;20051;-65
2023/10/15 10:58:36;;;;;;;4.38;1.35;;;;;;;11.82;78.23;101986.25;3617241;39;20325;-67
2023/10/15 11:01:06;;;;;;;4.90;1.08;;;;;;;11.96;78.30;101993.72;3617310;39;20129;-65
2023/10/15 11:03:32;;;;;;;3.53;0.98;;;;;;;11.91;73.77;102002.00;3620974;39;20053;-65
2023/10/15 11:05:59;;;;;;;4.43;1.00;;;;;;;11.85;73.62;101997.78;3607071;39;20050;-65
2023/10/15 11:08:24;;;;;;;2.90;1.20;;;;;;;11.76;73.57;101998.19;3618716;39;20070;-65
2023/10/15 11:10:50;;;;;;;6.53;1.08;;;;;;;11.75;73.73;101998.28;3617213;39;20278;-65
2023/10/15 11:13:16;;;;;;;4.25;0.90;;;;;;;11.66;71.81;102002.28;3615642;39;20204;-67
2023/10/15 11:15:44;;;;;;;6.32;1.30;;;;;;;11.45;72.15;101976.34;3615506;39;20373;-66
2023/10/15 11:18:10;;;;;;;3.45;1.25;;;;;;;11.55;72.27;102002.78;3618134;39;20378;-66
2023/10/15 11:20:36;;;;;;;3.88;1.20;;;;;;;11.35;73.57;101966.03;3617517;39;20050;-66
2023/10/15 11:23:05;;;;;;;3.72;0.93;;;;;;;11.61;72.93;102007.03;3616613;39;20046;-66
2023/10/15 11:25:34;;;;;;;4.95;2.22;;;;;;;11.73;73.36;102003.72;3608567;39;20786;-66
2023/10/15 11:28:10;;;;;;;2.17;0.93;;;;;;;11.80;72.10;102002.50;3616134;39;20286;-66
2023/10/15 11:30:41;;;;;;;2.33;1.20;;;;;;;11.85;73.22;101996.91;3617300;39;20051;-67
2023/10/15 11:33:12;;;;;;;4.05;1.30;;;;;;;11.91;73.30;102006.53;3615390;39;20059;-67
2023/10/15 11:35:40;;;;;;;2.85;0.80;;;;;;;11.94;72.24;102009.06;3616655;39;20055;-67
2023/10/15 11:38:10;;;;;;;3.33;0.80;;;;;;;12.00;72.07;102019.56;3617816;39;20349;-67
2023/10/15 11:40:39;;;;;;;4.55;0.90;;;;;;;11.94;71.15;102006.38;3614750;39;20412;-67
2023/10/15 11:43:18;;;;;;;3.15;0.80;;;;;;;12.06;70.08;102021.94;3616161;39;20397;-67
2023/10/15 11:45:46;;;;;;;3.03;0.80;;;;;;;12.29;68.47;102016.28;3615265;39;20065;-67
2023/10/15 11:48:13;;;;;;;2.92;1.08;;;;;;;12.96;68.77;102024.56;3614429;39;20042;-67
2023/10/15 11:50:41;;;;;;;4.53;0.93;;;;;;;13.62;65.67;102013.78;3617312;39;20057;-67
2023/10/15 11:53:20;;;;;;;4.10;0.70;;;;;;;14.21;63.75;102013.16;3614094;39;20055;-67
2023/10/15 11:55:47;;;;;;;2.45;1.10;;;;;;;14.77;62.55;102004.44;3615554;39;20050;-67
2023/10/15 11:58:16;;;;;;;2.47;1.08;;;;;;;15.12;61.36;102001.38;3607402;39;20094;-67